sensor_id;sensor_type;location;lat;lon;timestamp;P1;durP1;ratioP1;P2;durP2;ratioP2
14316;SDS011;7242;50.858;6.586;2023-04-08T00:01:27;19.57;;;13.70;;
14316;SDS011;7242;50.858;6.586;2023-04-08T00:04:28;17.93;;;13.70;;
14316;SDS011;7242;50.858;6.586;2023-04-08T00:07:29;18.87;;;13.73;;
14316;SDS011;7242;50.858;6.586;2023-04-08T00:10:30;21.03;;;14.17;;
14316;SDS011;7242;50.858;6.586;2023-04-08T00:13:31;16.50;;;12.77;;
14316;SDS011;7242;50.858;6.586;2023-04-08T00:16:32;21.00;;;13.93;;
14316;SDS011;7242;50.858;6.586;2023-04-08T00:19:32;21.20;;;14.03;;
14316;SDS011;7242;50.858;6.586;2023-04-08T00:22:34;17.77;;;13.87;;
14316;SDS011;7242;50.858;6.586;2023-04-08T00:25:35;19.50;;;15.07;;
14316;SDS011;7242;50.858;6.586;2023-04-08T00:28:36;20.23;;;14.70;;
14316;SDS011;7242;50.858;6.586;2023-04-08T00:31:37;18.17;;;15.10;;
14316;SDS011;7242;50.858;6.586;2023-04-08T00:34:38;18.60;;;15.13;;
14316;SDS011;7242;50.858;6.586;2023-04-08T00:37:39;17.13;;;14.70;;
14316;SDS011;7242;50.858;6.586;2023-04-08T00:40:40;18.37;;;15.30;;
14316;SDS011;7242;50.858;6.586;2023-04-08T00:43:41;19.83;;;16.27;;
14316;SDS011;7242;50.858;6.586;2023-04-08T00:46:42;18.63;;;15.93;;
14316;SDS011;7242;50.858;6.586;2023-04-08T00:49:43;19.40;;;16.80;;
14316;SDS011;7242;50.858;6.586;2023-04-08T00:52:45;23.63;;;16.80;;
14316;SDS011;7242;50.858;6.586;2023-04-08T00:55:45;19.90;;;16.90;;
14316;SDS011;7242;50.858;6.586;2023-04-08T00:58:46;19.87;;;16.37;;
14316;SDS011;7242;50.858;6.586;2023-04-08T01:02:08;21.80;;;16.90;;
14316;SDS011;7242;50.858;6.586;2023-04-08T01:08:27;21.87;;;17.07;;
14316;SDS011;7242;50.858;6.586;2023-04-08T01:11:31;22.57;;;17.63;;
14316;SDS011;7242;50.858;6.586;2023-04-08T01:14:34;21.30;;;17.57;;
14316;SDS011;7242;50.858;6.586;2023-04-08T01:17:38;22.33;;;18.03;;
14316;SDS011;7242;50.858;6.586;2023-04-08T01:20:43;21.87;;;16.80;;
14316;SDS011;7242;50.858;6.586;2023-04-08T01:26:50;21.50;;;17.70;;
14316;SDS011;7242;50.858;6.586;2023-04-08T01:29:51;21.90;;;18.23;;
14316;SDS011;7242;50.858;6.586;2023-04-08T01:32:53;26.47;;;18.30;;
14316;SDS011;7242;50.858;6.586;2023-04-08T01:35:55;21.90;;;18.10;;
14316;SDS011;7242;50.858;6.586;2023-04-08T01:38:59;19.40;;;16.83;;
14316;SDS011;7242;50.858;6.586;2023-04-08T01:42:01;23.87;;;18.10;;
14316;SDS011;7242;50.858;6.586;2023-04-08T01:45:03;22.77;;;18.23;;
14316;SDS011;7242;50.858;6.586;2023-04-08T01:48:05;23.40;;;18.50;;
14316;SDS011;7242;50.858;6.586;2023-04-08T01:51:07;22.67;;;17.57;;
14316;SDS011;7242;50.858;6.586;2023-04-08T01:54:09;25.53;;;18.13;;
14316;SDS011;7242;50.858;6.586;2023-04-08T01:57:11;22.50;;;17.97;;
14316;SDS011;7242;50.858;6.586;2023-04-08T02:00:18;20.73;;;17.40;;
14316;SDS011;7242;50.858;6.586;2023-04-08T02:03:21;20.57;;;17.47;;
14316;SDS011;7242;50.858;6.586;2023-04-08T02:06:24;23.50;;;18.40;;
14316;SDS011;7242;50.858;6.586;2023-04-08T02:09:27;24.20;;;18.77;;
14316;SDS011;7242;50.858;6.586;2023-04-08T02:12:27;27.90;;;18.40;;
14316;SDS011;7242;50.858;6.586;2023-04-08T02:15:28;26.90;;;19.17;;
14316;SDS011;7242;50.858;6.586;2023-04-08T02:18:35;21.83;;;18.43;;
14316;SDS011;7242;50.858;6.586;2023-04-08T02:21:44;24.63;;;18.47;;
14316;SDS011;7242;50.858;6.586;2023-04-08T02:24:47;24.63;;;19.90;;
14316;SDS011;7242;50.858;6.586;2023-04-08T02:27:50;23.03;;;19.47;;
14316;SDS011;7242;50.858;6.586;2023-04-08T02:30:53;24.50;;;19.53;;
14316;SDS011;7242;50.858;6.586;2023-04-08T02:33:55;26.10;;;21.10;;
14316;SDS011;7242;50.858;6.586;2023-04-08T02:36:57;28.60;;;21.63;;
14316;SDS011;7242;50.858;6.586;2023-04-08T02:39:58;27.50;;;21.10;;
14316;SDS011;7242;50.858;6.586;2023-04-08T02:42:59;27.87;;;21.53;;
14316;SDS011;7242;50.858;6.586;2023-04-08T02:46:00;27.10;;;20.73;;
14316;SDS011;7242;50.858;6.586;2023-04-08T02:49:02;26.30;;;20.27;;
14316;SDS011;7242;50.858;6.586;2023-04-08T02:52:04;24.30;;;20.60;;
14316;SDS011;7242;50.858;6.586;2023-04-08T02:55:05;27.27;;;20.73;;
14316;SDS011;7242;50.858;6.586;2023-04-08T02:58:09;26.73;;;21.53;;
14316;SDS011;7242;50.858;6.586;2023-04-08T03:01:10;29.37;;;22.83;;
14316;SDS011;7242;50.858;6.586;2023-04-08T03:04:10;31.00;;;21.67;;
14316;SDS011;7242;50.858;6.586;2023-04-08T03:07:11;25.93;;;21.07;;
14316;SDS011;7242;50.858;6.586;2023-04-08T03:10:12;28.73;;;23.23;;
14316;SDS011;7242;50.858;6.586;2023-04-08T03:13:13;27.83;;;21.63;;
14316;SDS011;7242;50.858;6.586;2023-04-08T03:16:14;27.60;;;21.60;;
14316;SDS011;7242;50.858;6.586;2023-04-08T03:19:15;30.87;;;23.27;;
14316;SDS011;7242;50.858;6.586;2023-04-08T03:22:15;30.20;;;23.83;;
14316;SDS011;7242;50.858;6.586;2023-04-08T03:25:17;28.37;;;22.40;;
14316;SDS011;7242;50.858;6.586;2023-04-08T03:28:17;29.90;;;23.13;;
14316;SDS011;7242;50.858;6.586;2023-04-08T03:31:18;30.50;;;23.50;;
14316;SDS011;7242;50.858;6.586;2023-04-08T03:34:20;30.13;;;23.17;;
14316;SDS011;7242;50.858;6.586;2023-04-08T03:37:21;28.57;;;22.73;;
14316;SDS011;7242;50.858;6.586;2023-04-08T03:40:21;29.83;;;22.23;;
14316;SDS011;7242;50.858;6.586;2023-04-08T03:43:22;30.73;;;23.63;;
14316;SDS011;7242;50.858;6.586;2023-04-08T03:46:24;31.23;;;22.13;;
14316;SDS011;7242;50.858;6.586;2023-04-08T03:49:25;30.73;;;24.03;;
14316;SDS011;7242;50.858;6.586;2023-04-08T03:52:26;28.60;;;22.20;;
14316;SDS011;7242;50.858;6.586;2023-04-08T03:55:26;29.63;;;22.53;;
14316;SDS011;7242;50.858;6.586;2023-04-08T03:58:28;31.60;;;23.50;;
14316;SDS011;7242;50.858;6.586;2023-04-08T04:01:29;26.43;;;21.47;;
14316;SDS011;7242;50.858;6.586;2023-04-08T04:04:31;32.10;;;24.20;;
14316;SDS011;7242;50.858;6.586;2023-04-08T04:07:33;32.17;;;23.10;;
14316;SDS011;7242;50.858;6.586;2023-04-08T04:10:34;32.70;;;24.67;;
14316;SDS011;7242;50.858;6.586;2023-04-08T04:13:35;31.83;;;22.77;;
14316;SDS011;7242;50.858;6.586;2023-04-08T04:16:36;32.30;;;23.33;;
14316;SDS011;7242;50.858;6.586;2023-04-08T04:19:37;31.43;;;22.43;;
14316;SDS011;7242;50.858;6.586;2023-04-08T04:22:38;27.73;;;22.30;;
14316;SDS011;7242;50.858;6.586;2023-04-08T04:25:42;28.27;;;22.20;;
14316;SDS011;7242;50.858;6.586;2023-04-08T04:28:43;29.27;;;22.27;;
14316;SDS011;7242;50.858;6.586;2023-04-08T04:31:44;28.20;;;22.13;;
14316;SDS011;7242;50.858;6.586;2023-04-08T04:34:45;29.27;;;22.30;;
14316;SDS011;7242;50.858;6.586;2023-04-08T04:37:46;29.53;;;22.23;;
14316;SDS011;7242;50.858;6.586;2023-04-08T04:40:49;29.57;;;22.70;;
14316;SDS011;7242;50.858;6.586;2023-04-08T04:43:50;29.93;;;23.20;;
14316;SDS011;7242;50.858;6.586;2023-04-08T04:46:51;31.43;;;23.03;;
14316;SDS011;7242;50.858;6.586;2023-04-08T04:49:52;29.60;;;22.63;;
14316;SDS011;7242;50.858;6.586;2023-04-08T04:52:53;29.03;;;23.00;;
14316;SDS011;7242;50.858;6.586;2023-04-08T04:55:53;37.27;;;23.90;;
14316;SDS011;7242;50.858;6.586;2023-04-08T04:58:54;35.00;;;23.80;;
14316;SDS011;7242;50.858;6.586;2023-04-08T05:01:55;35.80;;;22.63;;
14316;SDS011;7242;50.858;6.586;2023-04-08T05:04:56;29.13;;;21.87;;
14316;SDS011;7242;50.858;6.586;2023-04-08T05:07:57;26.40;;;21.13;;
14316;SDS011;7242;50.858;6.586;2023-04-08T05:10:58;26.30;;;21.33;;
14316;SDS011;7242;50.858;6.586;2023-04-08T05:14:01;26.27;;;21.10;;
14316;SDS011;7242;50.858;6.586;2023-04-08T05:17:02;27.50;;;20.77;;
14316;SDS011;7242;50.858;6.586;2023-04-08T05:20:04;28.53;;;20.27;;
14316;SDS011;7242;50.858;6.586;2023-04-08T05:23:06;25.17;;;19.03;;
14316;SDS011;7242;50.858;6.586;2023-04-08T05:26:07;27.23;;;18.30;;
14316;SDS011;7242;50.858;6.586;2023-04-08T05:29:08;20.03;;;16.17;;
14316;SDS011;7242;50.858;6.586;2023-04-08T05:32:09;21.30;;;17.10;;
14316;SDS011;7242;50.858;6.586;2023-04-08T05:35:10;26.40;;;18.33;;
14316;SDS011;7242;50.858;6.586;2023-04-08T05:38:11;22.80;;;17.77;;
14316;SDS011;7242;50.858;6.586;2023-04-08T05:41:12;22.17;;;18.10;;
14316;SDS011;7242;50.858;6.586;2023-04-08T05:44:13;24.73;;;18.27;;
14316;SDS011;7242;50.858;6.586;2023-04-08T05:47:13;29.10;;;20.87;;
14316;SDS011;7242;50.858;6.586;2023-04-08T05:50:15;31.47;;;22.70;;
14316;SDS011;7242;50.858;6.586;2023-04-08T05:53:16;34.20;;;23.40;;
14316;SDS011;7242;50.858;6.586;2023-04-08T05:56:17;34.27;;;23.30;;
14316;SDS011;7242;50.858;6.586;2023-04-08T05:59:17;35.30;;;24.77;;
14316;SDS011;7242;50.858;6.586;2023-04-08T06:02:18;36.47;;;24.83;;
14316;SDS011;7242;50.858;6.586;2023-04-08T06:05:19;37.43;;;25.57;;
14316;SDS011;7242;50.858;6.586;2023-04-08T06:08:20;35.83;;;25.57;;
14316;SDS011;7242;50.858;6.586;2023-04-08T06:11:22;36.40;;;24.60;;
14316;SDS011;7242;50.858;6.586;2023-04-08T06:14:23;38.33;;;26.40;;
14316;SDS011;7242;50.858;6.586;2023-04-08T06:17:24;41.90;;;28.73;;
14316;SDS011;7242;50.858;6.586;2023-04-08T06:20:26;47.00;;;29.23;;
14316;SDS011;7242;50.858;6.586;2023-04-08T06:23:27;40.67;;;28.63;;
14316;SDS011;7242;50.858;6.586;2023-04-08T06:26:27;41.37;;;28.23;;
14316;SDS011;7242;50.858;6.586;2023-04-08T06:29:28;42.97;;;28.37;;
14316;SDS011;7242;50.858;6.586;2023-04-08T06:32:30;42.60;;;28.40;;
14316;SDS011;7242;50.858;6.586;2023-04-08T06:35:31;42.00;;;27.87;;
14316;SDS011;7242;50.858;6.586;2023-04-08T06:38:32;45.63;;;30.27;;
14316;SDS011;7242;50.858;6.586;2023-04-08T06:41:33;47.30;;;29.47;;
14316;SDS011;7242;50.858;6.586;2023-04-08T06:44:50;42.33;;;28.60;;
14316;SDS011;7242;50.858;6.586;2023-04-08T06:47:51;42.23;;;28.83;;
14316;SDS011;7242;50.858;6.586;2023-04-08T06:50:55;38.60;;;27.40;;
14316;SDS011;7242;50.858;6.586;2023-04-08T06:53:56;42.67;;;28.43;;
14316;SDS011;7242;50.858;6.586;2023-04-08T06:56:57;42.33;;;28.50;;
14316;SDS011;7242;50.858;6.586;2023-04-08T06:59:58;40.40;;;26.30;;
14316;SDS011;7242;50.858;6.586;2023-04-08T07:02:59;43.50;;;28.07;;
14316;SDS011;7242;50.858;6.586;2023-04-08T07:06:00;42.00;;;28.07;;
14316;SDS011;7242;50.858;6.586;2023-04-08T07:09:02;37.90;;;27.40;;
14316;SDS011;7242;50.858;6.586;2023-04-08T07:12:03;41.93;;;27.97;;
14316;SDS011;7242;50.858;6.586;2023-04-08T07:15:05;41.60;;;27.87;;
14316;SDS011;7242;50.858;6.586;2023-04-08T07:18:06;42.30;;;27.17;;
14316;SDS011;7242;50.858;6.586;2023-04-08T07:21:07;38.23;;;27.00;;
14316;SDS011;7242;50.858;6.586;2023-04-08T07:24:08;35.47;;;26.53;;
14316;SDS011;7242;50.858;6.586;2023-04-08T07:27:09;44.73;;;29.37;;
14316;SDS011;7242;50.858;6.586;2023-04-08T07:30:10;44.53;;;26.87;;
14316;SDS011;7242;50.858;6.586;2023-04-08T07:33:11;39.47;;;26.43;;
14316;SDS011;7242;50.858;6.586;2023-04-08T07:36:12;40.83;;;26.27;;
14316;SDS011;7242;50.858;6.586;2023-04-08T07:39:14;42.57;;;27.13;;
14316;SDS011;7242;50.858;6.586;2023-04-08T07:42:15;38.53;;;27.00;;
14316;SDS011;7242;50.858;6.586;2023-04-08T07:45:16;36.67;;;25.30;;
14316;SDS011;7242;50.858;6.586;2023-04-08T07:48:17;39.10;;;26.57;;
14316;SDS011;7242;50.858;6.586;2023-04-08T07:51:18;39.00;;;25.60;;
14316;SDS011;7242;50.858;6.586;2023-04-08T07:54:18;35.07;;;25.33;;
14316;SDS011;7242;50.858;6.586;2023-04-08T07:57:19;30.27;;;21.97;;
14316;SDS011;7242;50.858;6.586;2023-04-08T08:00:21;35.33;;;24.70;;
14316;SDS011;7242;50.858;6.586;2023-04-08T08:03:22;29.13;;;21.60;;
14316;SDS011;7242;50.858;6.586;2023-04-08T08:06:23;32.80;;;24.23;;
14316;SDS011;7242;50.858;6.586;2023-04-08T08:09:24;32.47;;;25.23;;
14316;SDS011;7242;50.858;6.586;2023-04-08T08:12:25;28.17;;;21.57;;
14316;SDS011;7242;50.858;6.586;2023-04-08T08:15:26;27.73;;;21.43;;
14316;SDS011;7242;50.858;6.586;2023-04-08T08:18:27;27.87;;;22.20;;
14316;SDS011;7242;50.858;6.586;2023-04-08T08:21:29;34.20;;;25.07;;
14316;SDS011;7242;50.858;6.586;2023-04-08T08:24:30;29.17;;;22.80;;
14316;SDS011;7242;50.858;6.586;2023-04-08T08:27:31;32.20;;;23.63;;
14316;SDS011;7242;50.858;6.586;2023-04-08T08:30:33;34.97;;;25.53;;
14316;SDS011;7242;50.858;6.586;2023-04-08T08:33:34;36.10;;;27.27;;
14316;SDS011;7242;50.858;6.586;2023-04-08T08:36:35;36.47;;;26.63;;
14316;SDS011;7242;50.858;6.586;2023-04-08T08:39:35;35.37;;;27.63;;
14316;SDS011;7242;50.858;6.586;2023-04-08T08:42:36;36.70;;;28.10;;
14316;SDS011;7242;50.858;6.586;2023-04-08T08:45:41;32.53;;;26.80;;
14316;SDS011;7242;50.858;6.586;2023-04-08T08:48:42;34.07;;;26.10;;
14316;SDS011;7242;50.858;6.586;2023-04-08T08:51:44;34.67;;;27.30;;
14316;SDS011;7242;50.858;6.586;2023-04-08T08:54:46;32.40;;;26.33;;
14316;SDS011;7242;50.858;6.586;2023-04-08T08:57:50;31.40;;;25.87;;
14316;SDS011;7242;50.858;6.586;2023-04-08T09:00:51;32.50;;;25.97;;
14316;SDS011;7242;50.858;6.586;2023-04-08T09:04:05;31.90;;;25.97;;
14316;SDS011;7242;50.858;6.586;2023-04-08T09:07:10;28.87;;;23.13;;
14316;SDS011;7242;50.858;6.586;2023-04-08T09:10:12;31.73;;;24.73;;
14316;SDS011;7242;50.858;6.586;2023-04-08T09:13:13;32.70;;;25.17;;
14316;SDS011;7242;50.858;6.586;2023-04-08T09:16:15;30.93;;;25.47;;
14316;SDS011;7242;50.858;6.586;2023-04-08T09:19:17;34.20;;;26.63;;
14316;SDS011;7242;50.858;6.586;2023-04-08T09:22:18;32.27;;;26.70;;
14316;SDS011;7242;50.858;6.586;2023-04-08T09:25:37;33.23;;;27.70;;
14316;SDS011;7242;50.858;6.586;2023-04-08T09:28:38;32.07;;;27.50;;
14316;SDS011;7242;50.858;6.586;2023-04-08T09:31:39;30.10;;;25.77;;
14316;SDS011;7242;50.858;6.586;2023-04-08T09:34:43;36.83;;;28.40;;
14316;SDS011;7242;50.858;6.586;2023-04-08T09:37:45;35.00;;;28.33;;
14316;SDS011;7242;50.858;6.586;2023-04-08T09:40:45;39.27;;;29.83;;
14316;SDS011;7242;50.858;6.586;2023-04-08T09:43:47;32.90;;;27.57;;
14316;SDS011;7242;50.858;6.586;2023-04-08T09:49:54;36.03;;;29.13;;
14316;SDS011;7242;50.858;6.586;2023-04-08T09:52:58;37.77;;;30.23;;
14316;SDS011;7242;50.858;6.586;2023-04-08T09:56:13;36.07;;;29.23;;
14316;SDS011;7242;50.858;6.586;2023-04-08T09:59:19;38.27;;;29.33;;
14316;SDS011;7242;50.858;6.586;2023-04-08T10:02:24;40.73;;;31.27;;
14316;SDS011;7242;50.858;6.586;2023-04-08T10:05:30;40.03;;;31.20;;
14316;SDS011;7242;50.858;6.586;2023-04-08T10:08:31;37.60;;;29.00;;
14316;SDS011;7242;50.858;6.586;2023-04-08T10:11:32;38.93;;;29.53;;
14316;SDS011;7242;50.858;6.586;2023-04-08T10:14:35;40.00;;;30.60;;
14316;SDS011;7242;50.858;6.586;2023-04-08T10:17:36;36.17;;;28.63;;
14316;SDS011;7242;50.858;6.586;2023-04-08T10:23:53;39.67;;;30.97;;
14316;SDS011;7242;50.858;6.586;2023-04-08T10:26:55;41.93;;;30.93;;
14316;SDS011;7242;50.858;6.586;2023-04-08T10:29:57;41.67;;;31.67;;
14316;SDS011;7242;50.858;6.586;2023-04-08T10:32:58;39.73;;;30.70;;
14316;SDS011;7242;50.858;6.586;2023-04-08T10:39:11;37.43;;;30.63;;
14316;SDS011;7242;50.858;6.586;2023-04-08T10:42:13;39.50;;;30.43;;
14316;SDS011;7242;50.858;6.586;2023-04-08T10:45:15;39.77;;;30.30;;
14316;SDS011;7242;50.858;6.586;2023-04-08T10:51:21;38.73;;;30.47;;
14316;SDS011;7242;50.858;6.586;2023-04-08T10:54:22;36.83;;;29.40;;
14316;SDS011;7242;50.858;6.586;2023-04-08T10:57:23;41.57;;;31.43;;
14316;SDS011;7242;50.858;6.586;2023-04-08T11:00:32;39.37;;;31.70;;
14316;SDS011;7242;50.858;6.586;2023-04-08T11:03:33;41.00;;;31.20;;
14316;SDS011;7242;50.858;6.586;2023-04-08T11:06:35;38.33;;;29.50;;
14316;SDS011;7242;50.858;6.586;2023-04-08T11:09:36;37.57;;;31.47;;
14316;SDS011;7242;50.858;6.586;2023-04-08T11:12:40;36.13;;;29.70;;
14316;SDS011;7242;50.858;6.586;2023-04-08T11:15:41;36.50;;;30.37;;
14316;SDS011;7242;50.858;6.586;2023-04-08T11:18:41;38.53;;;30.67;;
14316;SDS011;7242;50.858;6.586;2023-04-08T11:21:42;36.60;;;31.23;;
14316;SDS011;7242;50.858;6.586;2023-04-08T11:24:43;34.40;;;29.07;;
14316;SDS011;7242;50.858;6.586;2023-04-08T11:27:44;38.93;;;30.37;;
14316;SDS011;7242;50.858;6.586;2023-04-08T11:30:46;38.40;;;31.00;;
14316;SDS011;7242;50.858;6.586;2023-04-08T11:33:48;39.17;;;33.50;;
14316;SDS011;7242;50.858;6.586;2023-04-08T11:36:52;35.57;;;29.80;;
14316;SDS011;7242;50.858;6.586;2023-04-08T11:39:56;39.73;;;32.17;;
14316;SDS011;7242;50.858;6.586;2023-04-08T11:42:57;34.77;;;29.93;;
14316;SDS011;7242;50.858;6.586;2023-04-08T11:45:58;37.40;;;30.87;;
14316;SDS011;7242;50.858;6.586;2023-04-08T11:49:05;33.17;;;27.90;;
14316;SDS011;7242;50.858;6.586;2023-04-08T11:52:07;34.33;;;27.60;;
14316;SDS011;7242;50.858;6.586;2023-04-08T11:55:12;29.37;;;24.87;;
14316;SDS011;7242;50.858;6.586;2023-04-08T11:58:22;34.47;;;27.30;;
14316;SDS011;7242;50.858;6.586;2023-04-08T12:01:23;34.90;;;27.63;;
14316;SDS011;7242;50.858;6.586;2023-04-08T12:04:23;33.87;;;28.80;;
14316;SDS011;7242;50.858;6.586;2023-04-08T12:07:25;36.93;;;27.97;;
14316;SDS011;7242;50.858;6.586;2023-04-08T12:10:26;31.40;;;25.13;;
14316;SDS011;7242;50.858;6.586;2023-04-08T12:13:27;27.70;;;23.00;;
14316;SDS011;7242;50.858;6.586;2023-04-08T12:16:27;25.00;;;21.13;;
14316;SDS011;7242;50.858;6.586;2023-04-08T12:19:28;22.63;;;19.63;;
14316;SDS011;7242;50.858;6.586;2023-04-08T12:22:29;22.80;;;20.27;;
14316;SDS011;7242;50.858;6.586;2023-04-08T12:25:30;19.23;;;17.03;;
14316;SDS011;7242;50.858;6.586;2023-04-08T12:28:31;16.97;;;15.17;;
14316;SDS011;7242;50.858;6.586;2023-04-08T12:31:33;17.07;;;15.23;;
14316;SDS011;7242;50.858;6.586;2023-04-08T12:34:34;15.50;;;13.93;;
14316;SDS011;7242;50.858;6.586;2023-04-08T12:37:35;15.17;;;13.57;;
14316;SDS011;7242;50.858;6.586;2023-04-08T12:40:35;15.53;;;13.73;;
14316;SDS011;7242;50.858;6.586;2023-04-08T12:43:37;14.03;;;12.63;;
14316;SDS011;7242;50.858;6.586;2023-04-08T12:46:38;13.90;;;12.50;;
14316;SDS011;7242;50.858;6.586;2023-04-08T12:49:39;13.93;;;12.33;;
14316;SDS011;7242;50.858;6.586;2023-04-08T12:52:40;14.80;;;13.30;;
14316;SDS011;7242;50.858;6.586;2023-04-08T12:55:41;15.53;;;13.93;;
14316;SDS011;7242;50.858;6.586;2023-04-08T12:58:42;14.17;;;12.73;;
14316;SDS011;7242;50.858;6.586;2023-04-08T13:01:42;14.53;;;13.03;;
14316;SDS011;7242;50.858;6.586;2023-04-08T13:04:43;13.77;;;12.37;;
14316;SDS011;7242;50.858;6.586;2023-04-08T13:07:44;15.20;;;13.70;;
14316;SDS011;7242;50.858;6.586;2023-04-08T13:10:45;17.43;;;14.93;;
14316;SDS011;7242;50.858;6.586;2023-04-08T13:13:47;15.57;;;13.87;;
14316;SDS011;7242;50.858;6.586;2023-04-08T13:16:48;14.73;;;13.23;;
14316;SDS011;7242;50.858;6.586;2023-04-08T13:19:49;15.63;;;13.93;;
14316;SDS011;7242;50.858;6.586;2023-04-08T13:22:51;16.83;;;15.13;;
14316;SDS011;7242;50.858;6.586;2023-04-08T13:25:52;16.10;;;14.40;;
14316;SDS011;7242;50.858;6.586;2023-04-08T13:28:53;16.30;;;14.27;;
14316;SDS011;7242;50.858;6.586;2023-04-08T13:31:53;17.37;;;14.90;;
14316;SDS011;7242;50.858;6.586;2023-04-08T13:34:54;17.73;;;15.93;;
14316;SDS011;7242;50.858;6.586;2023-04-08T13:37:55;17.13;;;15.33;;
14316;SDS011;7242;50.858;6.586;2023-04-08T13:40:56;18.13;;;16.33;;
14316;SDS011;7242;50.858;6.586;2023-04-08T13:43:57;18.23;;;16.43;;
14316;SDS011;7242;50.858;6.586;2023-04-08T13:46:58;17.67;;;15.87;;
14316;SDS011;7242;50.858;6.586;2023-04-08T13:49:59;18.37;;;16.57;;
14316;SDS011;7242;50.858;6.586;2023-04-08T13:53:00;18.83;;;16.07;;
14316;SDS011;7242;50.858;6.586;2023-04-08T13:56:01;19.33;;;17.43;;
14316;SDS011;7242;50.858;6.586;2023-04-08T13:59:02;19.03;;;17.23;;
14316;SDS011;7242;50.858;6.586;2023-04-08T14:02:03;19.53;;;17.53;;
14316;SDS011;7242;50.858;6.586;2023-04-08T14:05:05;20.53;;;17.00;;
14316;SDS011;7242;50.858;6.586;2023-04-08T14:08:06;17.83;;;15.97;;
14316;SDS011;7242;50.858;6.586;2023-04-08T14:11:07;19.67;;;17.40;;
14316;SDS011;7242;50.858;6.586;2023-04-08T14:14:08;19.00;;;17.07;;
14316;SDS011;7242;50.858;6.586;2023-04-08T14:17:09;19.80;;;17.70;;
14316;SDS011;7242;50.858;6.586;2023-04-08T14:20:10;20.77;;;18.47;;
14316;SDS011;7242;50.858;6.586;2023-04-08T14:23:11;24.30;;;20.00;;
14316;SDS011;7242;50.858;6.586;2023-04-08T14:26:12;24.80;;;21.13;;
14316;SDS011;7242;50.858;6.586;2023-04-08T14:29:13;25.97;;;22.23;;
14316;SDS011;7242;50.858;6.586;2023-04-08T14:32:14;28.43;;;23.17;;
14316;SDS011;7242;50.858;6.586;2023-04-08T14:35:15;27.53;;;23.33;;
14316;SDS011;7242;50.858;6.586;2023-04-08T14:38:16;24.60;;;20.57;;
14316;SDS011;7242;50.858;6.586;2023-04-08T14:41:17;23.53;;;20.33;;
14316;SDS011;7242;50.858;6.586;2023-04-08T14:44:18;23.53;;;19.93;;
14316;SDS011;7242;50.858;6.586;2023-04-08T14:47:19;24.80;;;20.60;;
14316;SDS011;7242;50.858;6.586;2023-04-08T14:50:20;26.17;;;21.70;;
14316;SDS011;7242;50.858;6.586;2023-04-08T14:53:21;27.37;;;21.23;;
14316;SDS011;7242;50.858;6.586;2023-04-08T14:56:22;24.00;;;19.93;;
14316;SDS011;7242;50.858;6.586;2023-04-08T14:59:23;24.07;;;20.23;;
14316;SDS011;7242;50.858;6.586;2023-04-08T15:02:24;22.57;;;19.90;;
14316;SDS011;7242;50.858;6.586;2023-04-08T15:05:25;21.20;;;18.77;;
14316;SDS011;7242;50.858;6.586;2023-04-08T15:08:26;21.00;;;18.70;;
14316;SDS011;7242;50.858;6.586;2023-04-08T15:11:26;23.73;;;18.97;;
14316;SDS011;7242;50.858;6.586;2023-04-08T15:14:27;17.93;;;16.03;;
14316;SDS011;7242;50.858;6.586;2023-04-08T15:17:28;16.50;;;14.70;;
14316;SDS011;7242;50.858;6.586;2023-04-08T15:20:28;16.27;;;13.53;;
14316;SDS011;7242;50.858;6.586;2023-04-08T15:23:30;16.37;;;13.13;;
14316;SDS011;7242;50.858;6.586;2023-04-08T15:26:31;17.77;;;14.73;;
14316;SDS011;7242;50.858;6.586;2023-04-08T15:29:32;16.47;;;14.57;;
14316;SDS011;7242;50.858;6.586;2023-04-08T15:32:33;16.63;;;14.67;;
14316;SDS011;7242;50.858;6.586;2023-04-08T15:35:33;15.57;;;13.97;;
14316;SDS011;7242;50.858;6.586;2023-04-08T15:38:37;14.10;;;12.60;;
14316;SDS011;7242;50.858;6.586;2023-04-08T15:41:39;14.07;;;12.57;;
14316;SDS011;7242;50.858;6.586;2023-04-08T15:44:40;14.63;;;13.00;;
14316;SDS011;7242;50.858;6.586;2023-04-08T15:47:41;14.33;;;12.83;;
14316;SDS011;7242;50.858;6.586;2023-04-08T15:50:41;15.13;;;13.53;;
14316;SDS011;7242;50.858;6.586;2023-04-08T15:53:42;14.30;;;12.80;;
14316;SDS011;7242;50.858;6.586;2023-04-08T15:56:44;15.70;;;12.50;;
14316;SDS011;7242;50.858;6.586;2023-04-08T15:59:45;13.97;;;12.37;;
14316;SDS011;7242;50.858;6.586;2023-04-08T16:02:46;14.27;;;11.87;;
14316;SDS011;7242;50.858;6.586;2023-04-08T16:05:47;14.13;;;12.37;;
14316;SDS011;7242;50.858;6.586;2023-04-08T16:08:47;14.77;;;13.17;;
14316;SDS011;7242;50.858;6.586;2023-04-08T16:11:49;14.07;;;12.37;;
14316;SDS011;7242;50.858;6.586;2023-04-08T16:14:50;13.17;;;11.23;;
14316;SDS011;7242;50.858;6.586;2023-04-08T16:17:51;14.87;;;11.50;;
14316;SDS011;7242;50.858;6.586;2023-04-08T16:20:52;12.33;;;11.03;;
14316;SDS011;7242;50.858;6.586;2023-04-08T16:23:52;16.00;;;12.60;;
14316;SDS011;7242;50.858;6.586;2023-04-08T16:26:53;14.10;;;12.03;;
14316;SDS011;7242;50.858;6.586;2023-04-08T16:29:55;13.17;;;11.77;;
14316;SDS011;7242;50.858;6.586;2023-04-08T16:32:56;14.10;;;12.20;;
14316;SDS011;7242;50.858;6.586;2023-04-08T16:35:57;12.20;;;11.00;;
14316;SDS011;7242;50.858;6.586;2023-04-08T16:38:58;12.93;;;11.53;;
14316;SDS011;7242;50.858;6.586;2023-04-08T16:42:00;15.17;;;12.50;;
14316;SDS011;7242;50.858;6.586;2023-04-08T16:45:00;13.60;;;12.20;;
14316;SDS011;7242;50.858;6.586;2023-04-08T16:48:01;13.23;;;11.93;;
14316;SDS011;7242;50.858;6.586;2023-04-08T16:51:05;13.60;;;12.10;;
14316;SDS011;7242;50.858;6.586;2023-04-08T16:54:06;15.03;;;12.33;;
14316;SDS011;7242;50.858;6.586;2023-04-08T16:57:07;13.97;;;12.47;;
14316;SDS011;7242;50.858;6.586;2023-04-08T17:00:08;13.30;;;11.93;;
14316;SDS011;7242;50.858;6.586;2023-04-08T17:03:09;14.80;;;13.23;;
14316;SDS011;7242;50.858;6.586;2023-04-08T17:06:11;14.40;;;12.77;;
14316;SDS011;7242;50.858;6.586;2023-04-08T17:09:13;14.40;;;13.00;;
14316;SDS011;7242;50.858;6.586;2023-04-08T17:12:13;14.57;;;13.07;;
14316;SDS011;7242;50.858;6.586;2023-04-08T17:15:14;14.27;;;12.77;;
14316;SDS011;7242;50.858;6.586;2023-04-08T17:18:15;13.77;;;12.33;;
14316;SDS011;7242;50.858;6.586;2023-04-08T17:21:16;14.13;;;12.73;;
14316;SDS011;7242;50.858;6.586;2023-04-08T17:24:17;14.13;;;12.70;;
14316;SDS011;7242;50.858;6.586;2023-04-08T17:27:17;14.33;;;12.83;;
14316;SDS011;7242;50.858;6.586;2023-04-08T17:30:19;15.43;;;13.93;;
14316;SDS011;7242;50.858;6.586;2023-04-08T17:33:20;15.00;;;13.57;;
14316;SDS011;7242;50.858;6.586;2023-04-08T17:36:21;16.93;;;15.23;;
14316;SDS011;7242;50.858;6.586;2023-04-08T17:39:22;16.33;;;14.83;;
14316;SDS011;7242;50.858;6.586;2023-04-08T17:42:22;17.67;;;16.07;;
14316;SDS011;7242;50.858;6.586;2023-04-08T17:45:23;19.87;;;18.13;;
14316;SDS011;7242;50.858;6.586;2023-04-08T17:48:25;19.17;;;17.37;;
14316;SDS011;7242;50.858;6.586;2023-04-08T17:51:26;20.13;;;18.03;;
14316;SDS011;7242;50.858;6.586;2023-04-08T17:54:28;19.57;;;17.77;;
14316;SDS011;7242;50.858;6.586;2023-04-08T17:57:30;18.03;;;16.53;;
14316;SDS011;7242;50.858;6.586;2023-04-08T18:00:31;19.10;;;17.40;;
14316;SDS011;7242;50.858;6.586;2023-04-08T18:03:32;18.37;;;16.77;;
14316;SDS011;7242;50.858;6.586;2023-04-08T18:06:33;18.60;;;17.00;;
14316;SDS011;7242;50.858;6.586;2023-04-08T18:09:34;18.23;;;16.63;;
14316;SDS011;7242;50.858;6.586;2023-04-08T18:12:36;17.77;;;16.17;;
14316;SDS011;7242;50.858;6.586;2023-04-08T18:15:37;20.83;;;18.93;;